sensor_id;sensor_type;location;lat;lon;timestamp;noise_LAeq;noise_LA_min;noise_LA_max;noise_LA01;noise_LA95
50333;Laerm;36239;48.132;-1.210;2024-02-21T00:01:21;37.56;31.68;41.38;;
50333;Laerm;36239;48.132;-1.210;2024-02-21T00:03:47;37.85;32.93;43.09;;
50333;Laerm;36239;48.132;-1.210;2024-02-21T00:06:13;39.34;32.93;64.52;;
50333;Laerm;36239;48.132;-1.210;2024-02-21T00:08:39;37.71;31.68;46.69;;
50333;Laerm;36239;48.132;-1.210;2024-02-21T00:11:05;37.97;33.44;58.37;;
50333;Laerm;36239;48.132;-1.210;2024-02-21T00:13:31;37.76;33.44;42.19;;
50333;Laerm;36239;48.132;-1.210;2024-02-21T00:15:57;37.48;32.35;42.65;;
50333;Laerm;36239;48.132;-1.210;2024-02-21T00:18:23;37.72;32.93;52.89;;
50333;Laerm;36239;48.132;-1.210;2024-02-21T00:20:49;41.20;32.93;68.86;;
50333;Laerm;36239;48.132;-1.210;2024-02-21T00:23:15;37.69;32.93;42.65;;
50333;Laerm;36239;48.132;-1.210;2024-02-21T00:25:41;37.68;32.93;44.11;;
50333;Laerm;36239;48.132;-1.210;2024-02-21T00:28:07;37.57;32.93;47.37;;
50333;Laerm;36239;48.132;-1.210;2024-02-21T00:30:33;38.09;33.44;47.22;;
50333;Laerm;36239;48.132;-1.210;2024-02-21T00:32:59;37.62;32.93;54.69;;
50333;Laerm;36239;48.132;-1.210;2024-02-21T00:35:25;37.65;32.35;46.71;;
50333;Laerm;36239;48.132;-1.210;2024-02-21T00:37:51;37.78;32.93;42.76;;
50333;Laerm;36239;48.132;-1.210;2024-02-21T00:40:18;37.83;33.44;47.36;;
50333;Laerm;36239;48.132;-1.210;2024-02-21T00:42:46;38.13;33.90;42.88;;
50333;Laerm;36239;48.132;-1.210;2024-02-21T00:45:12;38.20;32.35;43.04;;
50333;Laerm;36239;48.132;-1.210;2024-02-21T00:47:38;38.18;33.90;41.53;;
50333;Laerm;36239;48.132;-1.210;2024-02-21T00:50:05;38.40;33.90;48.78;;
50333;Laerm;36239;48.132;-1.210;2024-02-21T00:52:32;38.12;33.90;50.66;;
50333;Laerm;36239;48.132;-1.210;2024-02-21T00:54:58;38.65;32.93;55.48;;
50333;Laerm;36239;48.132;-1.210;2024-02-21T00:57:24;37.70;32.93;41.53;;
50333;Laerm;36239;48.132;-1.210;2024-02-21T00:59:50;37.55;32.35;42.98;;
50333;Laerm;36239;48.132;-1.210;2024-02-21T01:02:17;37.70;32.93;42.09;;
50333;Laerm;36239;48.132;-1.210;2024-02-21T01:04:43;37.67;32.35;45.45;;
50333;Laerm;36239;48.132;-1.210;2024-02-21T01:07:09;37.87;33.44;41.14;;
50333;Laerm;36239;48.132;-1.210;2024-02-21T01:09:35;37.71;32.93;41.61;;
50333;Laerm;36239;48.132;-1.210;2024-02-21T01:12:00;37.78;33.44;46.73;;
50333;Laerm;36239;48.132;-1.210;2024-02-21T01:14:26;37.79;32.93;43.34;;
50333;Laerm;36239;48.132;-1.210;2024-02-21T01:16:53;37.94;32.35;47.28;;
50333;Laerm;36239;48.132;-1.210;2024-02-21T01:19:19;39.21;33.44;60.05;;
50333;Laerm;36239;48.132;-1.210;2024-02-21T01:21:45;45.81;33.44;71.05;;
50333;Laerm;36239;48.132;-1.210;2024-02-21T01:24:11;38.16;33.90;48.81;;
50333;Laerm;36239;48.132;-1.210;2024-02-21T01:26:37;39.01;34.31;60.98;;
50333;Laerm;36239;48.132;-1.210;2024-02-21T01:29:03;38.38;33.44;57.44;;
50333;Laerm;36239;48.132;-1.210;2024-02-21T01:31:29;38.39;33.44;50.81;;
50333;Laerm;36239;48.132;-1.210;2024-02-21T01:33:55;38.42;33.90;57.37;;
50333;Laerm;36239;48.132;-1.210;2024-02-21T01:36:21;38.43;33.90;51.27;;
50333;Laerm;36239;48.132;-1.210;2024-02-21T01:38:47;37.89;33.44;45.42;;
50333;Laerm;36239;48.132;-1.210;2024-02-21T01:41:13;48.23;32.93;79.10;;
50333;Laerm;36239;48.132;-1.210;2024-02-21T01:43:39;37.77;33.44;44.76;;
50333;Laerm;36239;48.132;-1.210;2024-02-21T01:46:05;40.04;33.44;61.06;;
50333;Laerm;36239;48.132;-1.210;2024-02-21T01:48:31;39.51;33.90;60.90;;
50333;Laerm;36239;48.132;-1.210;2024-02-21T01:50:57;37.99;31.68;54.38;;
50333;Laerm;36239;48.132;-1.210;2024-02-21T01:53:33;37.85;33.44;49.82;;
50333;Laerm;36239;48.132;-1.210;2024-02-21T01:56:01;37.78;33.44;43.37;;
50333;Laerm;36239;48.132;-1.210;2024-02-21T01:58:27;38.16;33.44;57.12;;
50333;Laerm;36239;48.132;-1.210;2024-02-21T02:00:54;45.89;32.93;76.09;;
50333;Laerm;36239;48.132;-1.210;2024-02-21T02:03:22;42.55;33.44;68.82;;
50333;Laerm;36239;48.132;-1.210;2024-02-21T02:05:48;40.69;32.93;66.41;;
50333;Laerm;36239;48.132;-1.210;2024-02-21T02:08:24;38.47;33.44;54.78;;
50333;Laerm;36239;48.132;-1.210;2024-02-21T02:10:50;38.40;33.90;51.84;;
50333;Laerm;36239;48.132;-1.210;2024-02-21T02:13:16;39.08;34.31;55.09;;
50333;Laerm;36239;48.132;-1.210;2024-02-21T02:15:45;38.58;35.04;46.97;;
50333;Laerm;36239;48.132;-1.210;2024-02-21T02:18:12;38.51;33.90;50.07;;
50333;Laerm;36239;48.132;-1.210;2024-02-21T02:20:38;40.49;32.58;63.16;;
50333;Laerm;36239;48.132;-1.210;2024-02-21T02:23:12;40.13;31.68;62.44;;
50333;Laerm;36239;48.132;-1.210;2024-02-21T02:25:40;39.80;33.44;62.30;;
50333;Laerm;36239;48.132;-1.210;2024-02-21T02:28:06;39.55;33.44;58.23;;
50333;Laerm;36239;48.132;-1.210;2024-02-21T02:30:33;40.69;34.31;68.24;;
50333;Laerm;36239;48.132;-1.210;2024-02-21T02:33:00;38.23;34.31;45.72;;
50333;Laerm;36239;48.132;-1.210;2024-02-21T02:35:26;38.40;34.31;49.46;;
50333;Laerm;36239;48.132;-1.210;2024-02-21T02:37:52;39.89;34.31;60.51;;
50333;Laerm;36239;48.132;-1.210;2024-02-21T02:40:18;46.49;34.31;76.87;;
50333;Laerm;36239;48.132;-1.210;2024-02-21T02:42:44;38.89;34.31;58.52;;
50333;Laerm;36239;48.132;-1.210;2024-02-21T02:45:10;41.96;34.31;66.40;;
50333;Laerm;36239;48.132;-1.210;2024-02-21T02:47:37;39.43;33.90;60.12;;
50333;Laerm;36239;48.132;-1.210;2024-02-21T02:50:03;39.65;33.90;61.42;;
50333;Laerm;36239;48.132;-1.210;2024-02-21T02:52:29;39.78;34.31;66.31;;
50333;Laerm;36239;48.132;-1.210;2024-02-21T02:54:55;39.30;34.69;53.64;;
50333;Laerm;36239;48.132;-1.210;2024-02-21T02:57:21;39.70;33.90;59.79;;
50333;Laerm;36239;48.132;-1.210;2024-02-21T02:59:50;38.87;33.90;50.89;;
50333;Laerm;36239;48.132;-1.210;2024-02-21T03:02:17;38.89;33.90;54.03;;
50333;Laerm;36239;48.132;-1.210;2024-02-21T03:04:43;40.38;33.90;66.39;;
50333;Laerm;36239;48.132;-1.210;2024-02-21T03:07:09;38.49;33.44;49.27;;
50333;Laerm;36239;48.132;-1.210;2024-02-21T03:09:37;39.04;34.31;52.05;;
50333;Laerm;36239;48.132;-1.210;2024-02-21T03:12:04;42.69;34.31;65.71;;
50333;Laerm;36239;48.132;-1.210;2024-02-21T03:14:30;42.41;33.44;68.61;;
50333;Laerm;36239;48.132;-1.210;2024-02-21T03:16:57;38.33;33.44;50.14;;
50333;Laerm;36239;48.132;-1.210;2024-02-21T03:19:24;38.40;33.44;44.43;;
50333;Laerm;36239;48.132;-1.210;2024-02-21T03:21:50;38.88;34.69;58.38;;
50333;Laerm;36239;48.132;-1.210;2024-02-21T03:24:16;38.48;34.31;43.09;;
50333;Laerm;36239;48.132;-1.210;2024-02-21T03:26:42;38.52;34.69;49.34;;
50333;Laerm;36239;48.132;-1.210;2024-02-21T03:29:10;38.93;34.31;56.94;;
50333;Laerm;36239;48.132;-1.210;2024-02-21T03:31:36;38.76;35.04;55.38;;
50333;Laerm;36239;48.132;-1.210;2024-02-21T03:34:02;38.51;34.31;49.04;;
50333;Laerm;36239;48.132;-1.210;2024-02-21T03:36:28;38.92;34.69;52.49;;
50333;Laerm;36239;48.132;-1.210;2024-02-21T03:38:54;39.00;34.69;51.38;;
50333;Laerm;36239;48.132;-1.210;2024-02-21T03:41:20;40.39;33.90;64.86;;
50333;Laerm;36239;48.132;-1.210;2024-02-21T03:43:46;38.28;32.93;43.63;;
50333;Laerm;36239;48.132;-1.210;2024-02-21T03:46:13;38.43;34.69;52.26;;
50333;Laerm;36239;48.132;-1.210;2024-02-21T03:48:39;38.62;35.04;59.36;;
50333;Laerm;36239;48.132;-1.210;2024-02-21T03:51:04;39.23;34.69;58.05;;
50333;Laerm;36239;48.132;-1.210;2024-02-21T03:53:30;41.38;33.90;64.43;;
50333;Laerm;36239;48.132;-1.210;2024-02-21T03:55:56;49.54;34.69;77.78;;
50333;Laerm;36239;48.132;-1.210;2024-02-21T03:58:25;50.37;33.90;78.79;;
50333;Laerm;36239;48.132;-1.210;2024-02-21T04:00:51;38.76;34.69;52.13;;
50333;Laerm;36239;48.132;-1.210;2024-02-21T04:03:17;47.77;35.36;76.73;;
50333;Laerm;36239;48.132;-1.210;2024-02-21T04:05:43;39.57;35.04;57.35;;
50333;Laerm;36239;48.132;-1.210;2024-02-21T04:08:09;39.67;35.04;52.11;;
50333;Laerm;36239;48.132;-1.210;2024-02-21T04:10:35;41.13;35.04;65.22;;
50333;Laerm;36239;48.132;-1.210;2024-02-21T04:13:01;39.11;35.04;52.81;;
50333;Laerm;36239;48.132;-1.210;2024-02-21T04:15:27;39.30;35.04;54.59;;
50333;Laerm;36239;48.132;-1.210;2024-02-21T04:17:53;41.73;35.04;71.15;;
50333;Laerm;36239;48.132;-1.210;2024-02-21T04:20:19;57.51;35.04;88.93;;
50333;Laerm;36239;48.132;-1.210;2024-02-21T04:22:45;47.35;35.94;75.14;;
50333;Laerm;36239;48.132;-1.210;2024-02-21T04:25:12;49.69;35.66;69.42;;
50333;Laerm;36239;48.132;-1.210;2024-02-21T04:27:38;39.23;33.90;55.20;;
50333;Laerm;36239;48.132;-1.210;2024-02-21T04:30:06;39.80;34.69;60.91;;
50333;Laerm;36239;48.132;-1.210;2024-02-21T04:32:32;39.41;34.69;59.91;;
50333;Laerm;36239;48.132;-1.210;2024-02-21T04:34:58;40.60;33.90;63.73;;
50333;Laerm;36239;48.132;-1.210;2024-02-21T04:37:24;39.29;35.66;47.42;;
50333;Laerm;36239;48.132;-1.210;2024-02-21T04:39:50;39.91;35.66;60.23;;
50333;Laerm;36239;48.132;-1.210;2024-02-21T04:42:16;39.56;35.94;59.11;;
50333;Laerm;36239;48.132;-1.210;2024-02-21T04:44:43;39.20;35.66;47.32;;
50333;Laerm;36239;48.132;-1.210;2024-02-21T04:47:09;47.16;35.66;64.10;;
50333;Laerm;36239;48.132;-1.210;2024-02-21T04:49:35;38.99;35.04;44.23;;
50333;Laerm;36239;48.132;-1.210;2024-02-21T04:52:01;39.06;35.36;48.12;;
50333;Laerm;36239;48.132;-1.210;2024-02-21T04:54:27;39.52;35.36;51.86;;
50333;Laerm;36239;48.132;-1.210;2024-02-21T04:56:53;49.35;36.20;75.85;;
50333;Laerm;36239;48.132;-1.210;2024-02-21T04:59:19;39.19;34.69;44.27;;
50333;Laerm;36239;48.132;-1.210;2024-02-21T05:01:45;40.38;35.04;56.41;;
50333;Laerm;36239;48.132;-1.210;2024-02-21T05:04:11;38.97;34.69;49.43;;
50333;Laerm;36239;48.132;-1.210;2024-02-21T05:06:37;40.79;34.31;51.68;;
50333;Laerm;36239;48.132;-1.210;2024-02-21T05:09:04;40.79;36.20;55.95;;
50333;Laerm;36239;48.132;-1.210;2024-02-21T05:11:30;40.41;35.36;50.23;;
50333;Laerm;36239;48.132;-1.210;2024-02-21T05:13:56;39.49;35.04;52.95;;
50333;Laerm;36239;48.132;-1.210;2024-02-21T05:16:22;40.03;35.66;55.62;;
50333;Laerm;36239;48.132;-1.210;2024-02-21T05:18:48;39.78;35.94;49.29;;
50333;Laerm;36239;48.132;-1.210;2024-02-21T05:21:14;39.35;35.94;49.07;;
50333;Laerm;36239;48.132;-1.210;2024-02-21T05:23:40;40.35;35.94;59.53;;
50333;Laerm;36239;48.132;-1.210;2024-02-21T05:26:06;39.44;36.45;47.30;;
50333;Laerm;36239;48.132;-1.210;2024-02-21T05:28:32;40.19;36.69;50.58;;
50333;Laerm;36239;48.132;-1.210;2024-02-21T05:30:58;39.73;35.36;58.65;;
50333;Laerm;36239;48.132;-1.210;2024-02-21T05:33:24;40.29;35.36;61.93;;
50333;Laerm;36239;48.132;-1.210;2024-02-21T05:35:51;39.36;35.04;44.69;;
50333;Laerm;36239;48.132;-1.210;2024-02-21T05:38:17;39.37;35.66;45.67;;
50333;Laerm;36239;48.132;-1.210;2024-02-21T05:40:44;39.89;36.45;52.01;;
50333;Laerm;36239;48.132;-1.210;2024-02-21T05:43:10;39.89;35.94;53.65;;
50333;Laerm;36239;48.132;-1.210;2024-02-21T05:45:36;43.81;35.66;69.79;;
50333;Laerm;36239;48.132;-1.210;2024-02-21T05:48:03;41.29;36.69;62.50;;
50333;Laerm;36239;48.132;-1.210;2024-02-21T05:50:29;39.79;36.69;47.02;;
50333;Laerm;36239;48.132;-1.210;2024-02-21T05:52:55;39.90;36.45;52.97;;
50333;Laerm;36239;48.132;-1.210;2024-02-21T05:55:21;40.53;36.45;65.70;;
50333;Laerm;36239;48.132;-1.210;2024-02-21T05:57:48;42.35;36.45;58.90;;
50333;Laerm;36239;48.132;-1.210;2024-02-21T06:00:14;51.94;36.20;61.03;;
50333;Laerm;36239;48.132;-1.210;2024-02-21T06:02:41;59.14;36.45;77.30;;
50333;Laerm;36239;48.132;-1.210;2024-02-21T06:05:07;40.83;37.52;57.86;;
50333;Laerm;36239;48.132;-1.210;2024-02-21T06:07:34;40.38;36.91;57.92;;
50333;Laerm;36239;48.132;-1.210;2024-02-21T06:10:00;40.64;37.32;46.50;;
50333;Laerm;36239;48.132;-1.210;2024-02-21T06:12:26;45.65;37.70;65.74;;
50333;Laerm;36239;48.132;-1.210;2024-02-21T06:14:52;46.17;37.88;75.31;;
50333;Laerm;36239;48.132;-1.210;2024-02-21T06:17:18;48.95;37.70;74.40;;
50333;Laerm;36239;48.132;-1.210;2024-02-21T06:19:44;49.65;36.91;77.66;;
50333;Laerm;36239;48.132;-1.210;2024-02-21T06:22:10;42.54;37.70;64.05;;
50333;Laerm;36239;48.132;-1.210;2024-02-21T06:24:37;43.16;38.21;66.55;;
50333;Laerm;36239;48.132;-1.210;2024-02-21T06:27:04;41.98;38.52;59.94;;
50333;Laerm;36239;48.132;-1.210;2024-02-21T06:29:34;43.13;38.52;58.22;;
50333;Laerm;36239;48.132;-1.210;2024-02-21T06:32:01;43.05;38.95;62.14;;
50333;Laerm;36239;48.132;-1.210;2024-02-21T06:34:27;41.87;38.95;58.71;;
50333;Laerm;36239;48.132;-1.210;2024-02-21T06:36:53;44.92;38.05;71.08;;
50333;Laerm;36239;48.132;-1.210;2024-02-21T06:39:19;43.54;38.21;68.30;;
50333;Laerm;36239;48.132;-1.210;2024-02-21T06:41:45;48.10;38.81;73.03;;
50333;Laerm;36239;48.132;-1.210;2024-02-21T06:44:12;42.15;38.67;55.81;;
50333;Laerm;36239;48.132;-1.210;2024-02-21T06:46:38;52.73;38.95;72.11;;
50333;Laerm;36239;48.132;-1.210;2024-02-21T06:49:04;52.78;38.81;79.93;;
50333;Laerm;36239;48.132;-1.210;2024-02-21T06:51:30;57.67;39.46;76.41;;
50333;Laerm;36239;48.132;-1.210;2024-02-21T06:53:56;42.19;38.67;58.83;;
50333;Laerm;36239;48.132;-1.210;2024-02-21T06:56:23;43.34;39.21;55.49;;
50333;Laerm;36239;48.132;-1.210;2024-02-21T06:58:54;47.04;38.67;78.89;;
50333;Laerm;36239;48.132;-1.210;2024-02-21T07:01:21;47.16;38.37;68.21;;
50333;Laerm;36239;48.132;-1.210;2024-02-21T07:03:47;41.42;38.67;54.93;;
50333;Laerm;36239;48.132;-1.210;2024-02-21T07:06:13;41.43;38.81;53.33;;
50333;Laerm;36239;48.132;-1.210;2024-02-21T07:08:39;41.75;38.52;57.56;;
50333;Laerm;36239;48.132;-1.210;2024-02-21T07:11:05;53.56;38.52;81.65;;
50333;Laerm;36239;48.132;-1.210;2024-02-21T07:13:31;44.66;39.21;63.88;;
50333;Laerm;36239;48.132;-1.210;2024-02-21T07:15:58;43.21;38.67;67.09;;
50333;Laerm;36239;48.132;-1.210;2024-02-21T07:18:24;42.09;38.37;61.77;;
50333;Laerm;36239;48.132;-1.210;2024-02-21T07:20:51;48.80;38.37;74.24;;
50333;Laerm;36239;48.132;-1.210;2024-02-21T07:23:18;53.76;39.21;81.82;;
50333;Laerm;36239;48.132;-1.210;2024-02-21T07:25:44;50.44;39.21;74.07;;
50333;Laerm;36239;48.132;-1.210;2024-02-21T07:28:10;49.84;38.67;69.14;;
50333;Laerm;36239;48.132;-1.210;2024-02-21T07:30:36;43.95;38.37;70.67;;
50333;Laerm;36239;48.132;-1.210;2024-02-21T07:33:02;42.29;38.81;56.89;;
50333;Laerm;36239;48.132;-1.210;2024-02-21T07:35:28;43.25;39.46;63.16;;
50333;Laerm;36239;48.132;-1.210;2024-02-21T07:37:54;42.47;37.88;62.42;;
50333;Laerm;36239;48.132;-1.210;2024-02-21T07:40:20;41.72;38.67;55.83;;
50333;Laerm;36239;48.132;-1.210;2024-02-21T07:42:46;41.74;37.32;54.33;;
50333;Laerm;36239;48.132;-1.210;2024-02-21T07:45:12;46.30;38.67;75.49;;
50333;Laerm;36239;48.132;-1.210;2024-02-21T07:47:38;45.13;38.95;75.03;;
50333;Laerm;36239;48.132;-1.210;2024-02-21T07:50:04;43.94;38.21;65.78;;
50333;Laerm;36239;48.132;-1.210;2024-02-21T07:52:30;53.99;46.13;74.60;;
50333;Laerm;36239;48.132;-1.210;2024-02-21T07:54:56;42.29;37.32;57.23;;
50333;Laerm;36239;48.132;-1.210;2024-02-21T07:57:23;41.60;37.70;58.14;;
50333;Laerm;36239;48.132;-1.210;2024-02-21T07:59:49;43.36;38.05;68.76;;
50333;Laerm;36239;48.132;-1.210;2024-02-21T08:02:15;43.83;38.67;64.65;;
50333;Laerm;36239;48.132;-1.210;2024-02-21T08:04:41;56.25;38.21;87.76;;
50333;Laerm;36239;48.132;-1.210;2024-02-21T08:07:07;52.86;38.21;79.49;;
50333;Laerm;36239;48.132;-1.210;2024-02-21T08:09:33;42.88;38.67;67.77;;
50333;Laerm;36239;48.132;-1.210;2024-02-21T08:11:59;42.57;38.67;58.64;;
50333;Laerm;36239;48.132;-1.210;2024-02-21T08:14:25;41.55;38.87;47.34;;
50333;Laerm;36239;48.132;-1.210;2024-02-21T08:16:51;43.15;39.08;61.61;;
50333;Laerm;36239;48.132;-1.210;2024-02-21T08:19:19;42.76;38.21;56.54;;
50333;Laerm;36239;48.132;-1.210;2024-02-21T08:21:45;44.02;39.34;57.52;;
50333;Laerm;36239;48.132;-1.210;2024-02-21T08:24:13;49.33;39.08;72.49;;
50333;Laerm;36239;48.132;-1.210;2024-02-21T08:26:41;43.38;38.52;63.44;;
50333;Laerm;36239;48.132;-1.210;2024-02-21T08:29:07;46.39;38.95;75.81;;
50333;Laerm;36239;48.132;-1.210;2024-02-21T08:31:33;43.95;38.52;64.11;;
50333;Laerm;36239;48.132;-1.210;2024-02-21T08:34:00;42.04;38.95;56.70;;
50333;Laerm;36239;48.132;-1.210;2024-02-21T08:36:30;44.06;39.23;64.99;;
50333;Laerm;36239;48.132;-1.210;2024-02-21T08:38:56;41.85;38.67;57.89;;
50333;Laerm;36239;48.132;-1.210;2024-02-21T08:41:23;45.80;39.34;58.98;;
50333;Laerm;36239;48.132;-1.210;2024-02-21T08:43:51;45.39;39.81;58.89;;
50333;Laerm;36239;48.132;-1.210;2024-02-21T08:46:17;44.14;40.43;62.33;;
50333;Laerm;36239;48.132;-1.210;2024-02-21T08:48:43;44.97;40.62;65.41;;
50333;Laerm;36239;48.132;-1.210;2024-02-21T08:51:11;44.22;41.53;54.67;;
50333;Laerm;36239;48.132;-1.210;2024-02-21T08:53:37;43.92;40.89;61.84;;
50333;Laerm;36239;48.132;-1.210;2024-02-21T08:56:04;44.36;41.22;64.27;;
50333;Laerm;36239;48.132;-1.210;2024-02-21T08:58:30;46.24;41.38;71.50;;
50333;Laerm;36239;48.132;-1.210;2024-02-21T09:00:56;50.43;40.98;78.50;;
50333;Laerm;36239;48.132;-1.210;2024-02-21T09:03:22;43.52;41.22;60.76;;
50333;Laerm;36239;48.132;-1.210;2024-02-21T09:05:48;43.65;41.38;53.19;;
50333;Laerm;36239;48.132;-1.210;2024-02-21T09:08:14;46.07;41.61;68.46;;
50333;Laerm;36239;48.132;-1.210;2024-02-21T09:10:40;44.95;40.98;72.02;;
50333;Laerm;36239;48.132;-1.210;2024-02-21T09:13:07;44.61;40.89;67.75;;
50333;Laerm;36239;48.132;-1.210;2024-02-21T09:15:34;44.02;41.30;64.22;;
50333;Laerm;36239;48.132;-1.210;2024-02-21T09:18:00;54.96;40.71;84.91;;
50333;Laerm;36239;48.132;-1.210;2024-02-21T09:20:26;47.76;41.89;71.16;;
50333;Laerm;36239;48.132;-1.210;2024-02-21T09:22:52;44.63;40.98;65.31;;
50333;Laerm;36239;48.132;-1.210;2024-02-21T09:25:18;43.52;40.80;62.84;;
50333;Laerm;36239;48.132;-1.210;2024-02-21T09:27:45;49.59;41.06;77.40;;
50333;Laerm;36239;48.132;-1.210;2024-02-21T09:30:11;46.31;40.80;72.59;;
50333;Laerm;36239;48.132;-1.210;2024-02-21T09:32:37;57.92;41.14;86.78;;
50333;Laerm;36239;48.132;-1.210;2024-02-21T09:35:03;52.63;41.46;79.77;;
50333;Laerm;36239;48.132;-1.210;2024-02-21T09:37:31;47.40;41.38;66.15;;
50333;Laerm;36239;48.132;-1.210;2024-02-21T09:39:57;46.78;40.80;65.18;;
50333;Laerm;36239;48.132;-1.210;2024-02-21T09:42:24;45.73;41.06;68.66;;
50333;Laerm;36239;48.132;-1.210;2024-02-21T09:44:52;46.58;41.53;68.39;;
50333;Laerm;36239;48.132;-1.210;2024-02-21T09:47:24;46.17;41.53;72.60;;
50333;Laerm;36239;48.132;-1.210;2024-02-21T09:49:57;59.78;41.06;83.66;;
50333;Laerm;36239;48.132;-1.210;2024-02-21T09:52:23;44.39;41.30;58.35;;
50333;Laerm;36239;48.132;-1.210;2024-02-21T09:54:50;48.50;41.75;63.86;;
50333;Laerm;36239;48.132;-1.210;2024-02-21T09:57:18;48.94;41.89;73.93;;
50333;Laerm;36239;48.132;-1.210;2024-02-21T09:59:45;46.56;41.22;72.95;;
50333;Laerm;36239;48.132;-1.210;2024-02-21T10:02:12;43.07;40.43;53.30;;
50333;Laerm;36239;48.132;-1.210;2024-02-21T10:04:39;49.50;40.53;74.44;;
50333;Laerm;36239;48.132;-1.210;2024-02-21T10:07:05;42.95;40.23;57.42;;
50333;Laerm;36239;48.132;-1.210;2024-02-21T10:09:31;43.97;40.71;63.22;;
50333;Laerm;36239;48.132;-1.210;2024-02-21T10:12:08;45.47;40.23;63.82;;
50333;Laerm;36239;48.132;-1.210;2024-02-21T10:14:35;43.01;40.23;61.93;;
50333;Laerm;36239;48.132;-1.210;2024-02-21T10:17:01;43.14;40.89;55.37;;
50333;Laerm;36239;48.132;-1.210;2024-02-21T10:19:28;52.55;40.89;79.67;;
50333;Laerm;36239;48.132;-1.210;2024-02-21T10:22:07;43.64;40.13;57.30;;
50333;Laerm;36239;48.132;-1.210;2024-02-21T10:24:34;43.47;40.43;60.47;;
50333;Laerm;36239;48.132;-1.210;2024-02-21T10:27:04;44.76;40.98;67.95;;
50333;Laerm;36239;48.132;-1.210;2024-02-21T10:29:30;52.31;41.22;78.00;;
50333;Laerm;36239;48.132;-1.210;2024-02-21T10:34:33;43.64;39.92;63.87;;
50333;Laerm;36239;48.132;-1.210;2024-02-21T10:37:00;48.83;41.82;72.31;;
50333;Laerm;36239;48.132;-1.210;2024-02-21T10:39:25;46.69;41.89;75.45;;
50333;Laerm;36239;48.132;-1.210;2024-02-21T10:41:51;50.76;41.89;73.89;;
50333;Laerm;36239;48.132;-1.210;2024-02-21T10:44:19;46.41;43.24;63.19;;
50333;Laerm;36239;48.132;-1.210;2024-02-21T10:46:45;44.74;42.22;60.99;;
50333;Laerm;36239;48.132;-1.210;2024-02-21T10:49:13;62.49;43.09;90.67;;
50333;Laerm;36239;48.132;-1.210;2024-02-21T10:51:43;57.00;43.44;84.33;;
50333;Laerm;36239;48.132;-1.210;2024-02-21T10:56:53;55.84;43.54;82.23;;
50333;Laerm;36239;48.132;-1.210;2024-02-21T10:59:22;46.56;43.77;57.59;;
50333;Laerm;36239;48.132;-1.210;2024-02-21T11:01:49;48.73;43.63;73.02;;
50333;Laerm;36239;48.132;-1.210;2024-02-21T11:04:15;47.23;43.58;70.67;;
50333;Laerm;36239;48.132;-1.210;2024-02-21T11:06:42;47.76;43.58;70.06;;
50333;Laerm;36239;48.132;-1.210;2024-02-21T11:09:09;49.63;43.34;75.46;;
50333;Laerm;36239;48.132;-1.210;2024-02-21T11:11:35;46.41;43.39;64.93;;
50333;Laerm;36239;48.132;-1.210;2024-02-21T11:14:09;47.54;43.72;64.25;;
50333;Laerm;36239;48.132;-1.210;2024-02-21T11:16:40;47.63;43.63;68.46;;
50333;Laerm;36239;48.132;-1.210;2024-02-21T11:21:33;51.93;44.07;79.15;;
50333;Laerm;36239;48.132;-1.210;2024-02-21T11:24:00;49.16;43.77;75.94;;
50333;Laerm;36239;48.132;-1.210;2024-02-21T11:26:28;51.31;43.86;76.79;;
50333;Laerm;36239;48.132;-1.210;2024-02-21T11:28:58;48.22;43.94;69.68;;
50333;Laerm;36239;48.132;-1.210;2024-02-21T11:31:25;52.46;43.99;81.31;;
50333;Laerm;36239;48.132;-1.210;2024-02-21T11:33:53;52.60;44.27;77.81;;
50333;Laerm;36239;48.132;-1.210;2024-02-21T11:36:25;54.42;43.99;79.57;;
50333;Laerm;36239;48.132;-1.210;2024-02-21T11:38:52;56.77;44.73;85.64;;
50333;Laerm;36239;48.132;-1.210;2024-02-21T11:41:19;50.88;45.01;74.88;;
50333;Laerm;36239;48.132;-1.210;2024-02-21T11:43:48;56.36;43.81;67.49;;
50333;Laerm;36239;48.132;-1.210;2024-02-21T11:46:14;61.72;57.68;75.79;;
50333;Laerm;36239;48.132;-1.210;2024-02-21T11:48:41;62.42;44.80;84.29;;
50333;Laerm;36239;48.132;-1.210;2024-02-21T11:51:07;48.15;44.03;71.46;;
50333;Laerm;36239;48.132;-1.210;2024-02-21T11:53:33;51.25;44.03;75.25;;
50333;Laerm;36239;48.132;-1.210;2024-02-21T11:55:59;55.57;43.81;79.15;;
50333;Laerm;36239;48.132;-1.210;2024-02-21T11:58:25;47.88;44.27;65.53;;
50333;Laerm;36239;48.132;-1.210;2024-02-21T12:00:52;50.50;43.58;80.04;;
50333;Laerm;36239;48.132;-1.210;2024-02-21T12:03:18;53.41;43.44;79.04;;
50333;Laerm;36239;48.132;-1.210;2024-02-21T12:05:44;52.01;43.29;72.14;;
50333;Laerm;36239;48.132;-1.210;2024-02-21T12:08:12;45.97;42.65;61.47;;
50333;Laerm;36239;48.132;-1.210;2024-02-21T12:10:38;45.12;43.14;57.55;;
50333;Laerm;36239;48.132;-1.210;2024-02-21T12:13:07;47.33;42.65;72.58;;
50333;Laerm;36239;48.132;-1.210;2024-02-21T12:15:34;53.60;43.29;79.11;;
50333;Laerm;36239;48.132;-1.210;2024-02-21T12:18:00;58.64;43.19;88.61;;
50333;Laerm;36239;48.132;-1.210;2024-02-21T12:20:26;46.71;43.49;66.30;;
50333;Laerm;36239;48.132;-1.210;2024-02-21T12:22:52;50.89;43.58;78.60;;
50333;Laerm;36239;48.132;-1.210;2024-02-21T12:25:20;49.60;44.03;71.21;;
50333;Laerm;36239;48.132;-1.210;2024-02-21T12:27:48;51.55;43.90;76.30;;
50333;Laerm;36239;48.132;-1.210;2024-02-21T12:30:15;49.88;43.90;74.29;;
50333;Laerm;36239;48.132;-1.210;2024-02-21T12:32:41;50.87;43.81;74.33;;
50333;Laerm;36239;48.132;-1.210;2024-02-21T12:35:07;45.84;42.93;63.24;;
50333;Laerm;36239;48.132;-1.210;2024-02-21T12:37:33;53.80;42.76;84.70;;
50333;Laerm;36239;48.132;-1.210;2024-02-21T12:39:59;55.15;42.82;84.43;;
50333;Laerm;36239;48.132;-1.210;2024-02-21T12:42:25;50.50;43.19;78.18;;
50333;Laerm;36239;48.132;-1.210;2024-02-21T12:44:52;45.94;42.98;60.20;;
50333;Laerm;36239;48.132;-1.210;2024-02-21T12:47:18;56.24;43.49;80.71;;
50333;Laerm;36239;48.132;-1.210;2024-02-21T12:49:45;66.31;42.71;97.09;;
50333;Laerm;36239;48.132;-1.210;2024-02-21T12:52:11;52.97;42.16;82.23;;
50333;Laerm;36239;48.132;-1.210;2024-02-21T12:54:39;59.02;43.29;85.83;;
50333;Laerm;36239;48.132;-1.210;2024-02-21T12:57:05;48.28;42.82;73.24;;
50333;Laerm;36239;48.132;-1.210;2024-02-21T12:59:31;54.85;42.69;85.32;;
50333;Laerm;36239;48.132;-1.210;2024-02-21T13:01:57;48.51;42.03;73.02;;
50333;Laerm;36239;48.132;-1.210;2024-02-21T13:04:23;58.08;42.41;83.65;;
50333;Laerm;36239;48.132;-1.210;2024-02-21T13:06:49;52.21;42.98;74.34;;
50333;Laerm;36239;48.132;-1.210;2024-02-21T13:09:15;57.12;42.71;82.48;;
50333;Laerm;36239;48.132;-1.210;2024-02-21T13:11:42;53.75;42.98;81.97;;
50333;Laerm;36239;48.132;-1.210;2024-02-21T13:14:10;54.37;43.19;77.20;;
50333;Laerm;36239;48.132;-1.210;2024-02-21T13:16:36;64.62;42.98;93.33;;
50333;Laerm;36239;48.132;-1.210;2024-02-21T13:19:05;47.40;42.53;69.78;;
50333;Laerm;36239;48.132;-1.210;2024-02-21T13:21:31;51.14;43.29;76.21;;
50333;Laerm;36239;48.132;-1.210;2024-02-21T13:23:57;46.90;42.53;68.94;;
50333;Laerm;36239;48.132;-1.210;2024-02-21T13:26:23;66.46;43.63;93.12;;
50333;Laerm;36239;48.132;-1.210;2024-02-21T13:28:49;57.37;44.35;86.38;;
50333;Laerm;36239;48.132;-1.210;2024-02-21T13:31:15;56.77;43.99;83.93;;
50333;Laerm;36239;48.132;-1.210;2024-02-21T13:33:42;54.43;43.39;75.21;;
50333;Laerm;36239;48.132;-1.210;2024-02-21T13:36:10;57.80;44.51;85.49;;